sensor_id;sensor_type;location;lat;lon;timestamp;P1;durP1;ratioP1;P2;durP2;ratioP2
37164;SDS011;23057;48.554;14.454;2023-09-30T00:00:27;8.90;;;5.32;;
37164;SDS011;23057;48.554;14.454;2023-09-30T00:02:57;6.85;;;3.83;;
37164;SDS011;23057;48.554;14.454;2023-09-30T00:05:29;10.02;;;4.55;;
37164;SDS011;23057;48.554;14.454;2023-09-30T00:08:00;11.20;;;6.15;;
37164;SDS011;23057;48.554;14.454;2023-09-30T00:10:31;6.45;;;4.78;;
37164;SDS011;23057;48.554;14.454;2023-09-30T00:13:02;8.23;;;4.00;;
37164;SDS011;23057;48.554;14.454;2023-09-30T00:15:33;5.80;;;4.00;;
37164;SDS011;23057;48.554;14.454;2023-09-30T00:18:04;7.60;;;4.50;;
37164;SDS011;23057;48.554;14.454;2023-09-30T00:20:35;7.18;;;4.28;;
37164;SDS011;23057;48.554;14.454;2023-09-30T00:23:06;5.88;;;4.38;;
37164;SDS011;23057;48.554;14.454;2023-09-30T00:25:37;6.95;;;3.90;;
37164;SDS011;23057;48.554;14.454;2023-09-30T00:28:09;8.18;;;4.78;;
37164;SDS011;23057;48.554;14.454;2023-09-30T00:30:40;7.13;;;4.45;;
37164;SDS011;23057;48.554;14.454;2023-09-30T00:33:11;6.72;;;3.90;;
37164;SDS011;23057;48.554;14.454;2023-09-30T00:35:41;8.13;;;4.20;;
37164;SDS011;23057;48.554;14.454;2023-09-30T00:38:13;8.15;;;4.22;;
37164;SDS011;23057;48.554;14.454;2023-09-30T00:40:48;6.43;;;4.25;;
37164;SDS011;23057;48.554;14.454;2023-09-30T00:43:20;7.55;;;4.40;;
37164;SDS011;23057;48.554;14.454;2023-09-30T00:45:51;7.80;;;4.20;;
37164;SDS011;23057;48.554;14.454;2023-09-30T00:48:48;6.45;;;4.38;;
37164;SDS011;23057;48.554;14.454;2023-09-30T00:51:19;8.75;;;4.68;;
37164;SDS011;23057;48.554;14.454;2023-09-30T00:53:52;9.00;;;4.28;;
37164;SDS011;23057;48.554;14.454;2023-09-30T00:56:29;8.07;;;4.60;;
37164;SDS011;23057;48.554;14.454;2023-09-30T00:59:00;7.70;;;4.63;;
37164;SDS011;23057;48.554;14.454;2023-09-30T01:01:31;9.20;;;4.35;;
37164;SDS011;23057;48.554;14.454;2023-09-30T01:04:02;6.22;;;4.95;;
37164;SDS011;23057;48.554;14.454;2023-09-30T01:06:34;8.82;;;5.70;;
37164;SDS011;23057;48.554;14.454;2023-09-30T01:09:05;7.18;;;5.22;;
37164;SDS011;23057;48.554;14.454;2023-09-30T01:11:40;8.80;;;6.00;;
37164;SDS011;23057;48.554;14.454;2023-09-30T01:17:05;8.40;;;5.30;;
37164;SDS011;23057;48.554;14.454;2023-09-30T01:19:39;8.35;;;5.10;;
37164;SDS011;23057;48.554;14.454;2023-09-30T01:22:12;7.28;;;4.72;;
37164;SDS011;23057;48.554;14.454;2023-09-30T01:24:43;7.15;;;5.13;;
37164;SDS011;23057;48.554;14.454;2023-09-30T01:27:17;7.40;;;4.97;;
37164;SDS011;23057;48.554;14.454;2023-09-30T01:29:49;5.07;;;3.80;;
37164;SDS011;23057;48.554;14.454;2023-09-30T01:32:20;7.53;;;4.78;;
37164;SDS011;23057;48.554;14.454;2023-09-30T01:34:51;6.25;;;3.78;;
37164;SDS011;23057;48.554;14.454;2023-09-30T01:37:22;7.30;;;4.75;;
37164;SDS011;23057;48.554;14.454;2023-09-30T01:39:57;7.63;;;4.70;;
37164;SDS011;23057;48.554;14.454;2023-09-30T01:42:28;7.28;;;4.30;;
37164;SDS011;23057;48.554;14.454;2023-09-30T01:44:59;6.07;;;4.22;;
37164;SDS011;23057;48.554;14.454;2023-09-30T01:47:30;8.75;;;4.53;;
37164;SDS011;23057;48.554;14.454;2023-09-30T01:50:01;7.45;;;4.50;;
37164;SDS011;23057;48.554;14.454;2023-09-30T01:52:32;6.05;;;4.50;;
37164;SDS011;23057;48.554;14.454;2023-09-30T01:55:03;8.10;;;4.45;;
37164;SDS011;23057;48.554;14.454;2023-09-30T01:57:34;6.03;;;4.05;;
37164;SDS011;23057;48.554;14.454;2023-09-30T02:00:05;7.53;;;5.60;;
37164;SDS011;23057;48.554;14.454;2023-09-30T02:02:39;7.20;;;4.38;;
37164;SDS011;23057;48.554;14.454;2023-09-30T02:05:11;7.93;;;5.15;;
37164;SDS011;23057;48.554;14.454;2023-09-30T02:07:43;6.85;;;4.00;;
37164;SDS011;23057;48.554;14.454;2023-09-30T02:10:14;7.72;;;4.38;;
37164;SDS011;23057;48.554;14.454;2023-09-30T02:12:46;5.88;;;4.43;;
37164;SDS011;23057;48.554;14.454;2023-09-30T02:15:17;7.15;;;4.68;;
37164;SDS011;23057;48.554;14.454;2023-09-30T02:17:48;8.02;;;4.40;;
37164;SDS011;23057;48.554;14.454;2023-09-30T02:20:19;8.32;;;4.72;;
37164;SDS011;23057;48.554;14.454;2023-09-30T02:22:52;7.63;;;4.32;;
37164;SDS011;23057;48.554;14.454;2023-09-30T02:25:24;6.45;;;4.63;;
37164;SDS011;23057;48.554;14.454;2023-09-30T02:27:55;8.52;;;4.60;;
37164;SDS011;23057;48.554;14.454;2023-09-30T02:30:27;6.40;;;3.95;;
37164;SDS011;23057;48.554;14.454;2023-09-30T02:32:57;7.53;;;4.57;;
37164;SDS011;23057;48.554;14.454;2023-09-30T02:35:29;6.38;;;4.20;;
37164;SDS011;23057;48.554;14.454;2023-09-30T02:38:00;6.20;;;4.05;;
37164;SDS011;23057;48.554;14.454;2023-09-30T02:40:31;7.00;;;4.60;;
37164;SDS011;23057;48.554;14.454;2023-09-30T02:43:02;6.13;;;4.40;;
37164;SDS011;23057;48.554;14.454;2023-09-30T02:45:33;8.40;;;4.47;;
37164;SDS011;23057;48.554;14.454;2023-09-30T02:48:03;8.63;;;5.63;;
37164;SDS011;23057;48.554;14.454;2023-09-30T02:50:36;11.27;;;5.63;;
37164;SDS011;23057;48.554;14.454;2023-09-30T02:53:07;14.43;;;5.90;;
37164;SDS011;23057;48.554;14.454;2023-09-30T02:55:41;12.80;;;6.57;;
37164;SDS011;23057;48.554;14.454;2023-09-30T02:58:12;13.48;;;5.32;;
37164;SDS011;23057;48.554;14.454;2023-09-30T03:00:47;9.93;;;5.95;;
37164;SDS011;23057;48.554;14.454;2023-09-30T03:03:19;6.85;;;5.00;;
37164;SDS011;23057;48.554;14.454;2023-09-30T03:05:49;10.73;;;3.70;;
37164;SDS011;23057;48.554;14.454;2023-09-30T03:08:20;8.18;;;4.93;;
37164;SDS011;23057;48.554;14.454;2023-09-30T03:10:52;7.50;;;4.63;;
37164;SDS011;23057;48.554;14.454;2023-09-30T03:13:23;7.32;;;4.57;;
37164;SDS011;23057;48.554;14.454;2023-09-30T03:15:54;8.07;;;4.45;;
37164;SDS011;23057;48.554;14.454;2023-09-30T03:18:27;13.27;;;6.30;;
37164;SDS011;23057;48.554;14.454;2023-09-30T03:20:58;15.20;;;6.10;;
37164;SDS011;23057;48.554;14.454;2023-09-30T03:23:38;11.93;;;5.90;;
37164;SDS011;23057;48.554;14.454;2023-09-30T03:26:10;9.98;;;4.88;;
37164;SDS011;23057;48.554;14.454;2023-09-30T03:28:41;12.55;;;6.30;;
37164;SDS011;23057;48.554;14.454;2023-09-30T03:31:12;10.30;;;6.13;;
37164;SDS011;23057;48.554;14.454;2023-09-30T03:33:42;10.23;;;5.95;;
37164;SDS011;23057;48.554;14.454;2023-09-30T03:36:13;13.23;;;6.72;;
37164;SDS011;23057;48.554;14.454;2023-09-30T03:38:45;13.00;;;6.53;;
37164;SDS011;23057;48.554;14.454;2023-09-30T03:41:16;14.05;;;6.47;;
37164;SDS011;23057;48.554;14.454;2023-09-30T03:43:49;13.27;;;7.25;;
37164;SDS011;23057;48.554;14.454;2023-09-30T03:46:20;16.50;;;8.23;;
37164;SDS011;23057;48.554;14.454;2023-09-30T03:48:51;15.27;;;7.60;;
37164;SDS011;23057;48.554;14.454;2023-09-30T03:51:22;15.38;;;7.60;;
37164;SDS011;23057;48.554;14.454;2023-09-30T03:53:55;20.13;;;7.72;;
37164;SDS011;23057;48.554;14.454;2023-09-30T03:56:26;17.17;;;8.27;;
37164;SDS011;23057;48.554;14.454;2023-09-30T03:58:56;20.60;;;8.07;;
37164;SDS011;23057;48.554;14.454;2023-09-30T04:01:28;18.15;;;7.95;;
37164;SDS011;23057;48.554;14.454;2023-09-30T04:03:59;14.80;;;7.60;;
37164;SDS011;23057;48.554;14.454;2023-09-30T04:06:30;20.85;;;7.60;;
37164;SDS011;23057;48.554;14.454;2023-09-30T04:09:01;16.45;;;8.07;;
37164;SDS011;23057;48.554;14.454;2023-09-30T04:11:33;18.50;;;8.45;;
37164;SDS011;23057;48.554;14.454;2023-09-30T04:14:07;15.98;;;8.13;;
37164;SDS011;23057;48.554;14.454;2023-09-30T04:16:40;16.75;;;7.10;;
37164;SDS011;23057;48.554;14.454;2023-09-30T04:19:11;17.92;;;7.13;;
37164;SDS011;23057;48.554;14.454;2023-09-30T04:21:43;20.77;;;7.22;;
37164;SDS011;23057;48.554;14.454;2023-09-30T04:24:14;16.98;;;7.47;;
37164;SDS011;23057;48.554;14.454;2023-09-30T04:26:45;16.77;;;7.53;;
37164;SDS011;23057;48.554;14.454;2023-09-30T04:29:16;17.95;;;8.00;;
37164;SDS011;23057;48.554;14.454;2023-09-30T04:31:47;16.90;;;7.70;;
37164;SDS011;23057;48.554;14.454;2023-09-30T04:34:17;19.45;;;8.75;;
37164;SDS011;23057;48.554;14.454;2023-09-30T04:36:49;18.33;;;8.43;;
37164;SDS011;23057;48.554;14.454;2023-09-30T04:39:20;21.42;;;8.25;;
37164;SDS011;23057;48.554;14.454;2023-09-30T04:41:50;21.58;;;8.85;;
37164;SDS011;23057;48.554;14.454;2023-09-30T04:44:21;20.23;;;7.78;;
37164;SDS011;23057;48.554;14.454;2023-09-30T04:46:53;20.95;;;8.80;;
37164;SDS011;23057;48.554;14.454;2023-09-30T04:49:26;21.83;;;8.30;;
37164;SDS011;23057;48.554;14.454;2023-09-30T04:51:57;20.40;;;8.52;;
37164;SDS011;23057;48.554;14.454;2023-09-30T04:54:27;21.63;;;8.18;;
37164;SDS011;23057;48.554;14.454;2023-09-30T04:56:59;20.25;;;8.40;;
37164;SDS011;23057;48.554;14.454;2023-09-30T04:59:30;19.83;;;9.07;;
37164;SDS011;23057;48.554;14.454;2023-09-30T05:02:01;21.70;;;8.60;;
37164;SDS011;23057;48.554;14.454;2023-09-30T05:04:33;20.08;;;7.72;;
37164;SDS011;23057;48.554;14.454;2023-09-30T05:07:04;21.85;;;8.05;;
37164;SDS011;23057;48.554;14.454;2023-09-30T05:09:36;18.70;;;7.32;;
37164;SDS011;23057;48.554;14.454;2023-09-30T05:12:08;15.35;;;7.63;;
37164;SDS011;23057;48.554;14.454;2023-09-30T05:14:39;24.23;;;8.70;;
37164;SDS011;23057;48.554;14.454;2023-09-30T05:17:10;24.58;;;8.50;;
37164;SDS011;23057;48.554;14.454;2023-09-30T05:19:43;21.38;;;8.10;;
37164;SDS011;23057;48.554;14.454;2023-09-30T05:22:14;19.98;;;8.25;;
37164;SDS011;23057;48.554;14.454;2023-09-30T05:24:45;19.02;;;8.45;;
37164;SDS011;23057;48.554;14.454;2023-09-30T05:27:16;21.20;;;7.90;;
37164;SDS011;23057;48.554;14.454;2023-09-30T05:29:46;19.83;;;7.40;;
37164;SDS011;23057;48.554;14.454;2023-09-30T05:32:18;22.42;;;8.07;;
37164;SDS011;23057;48.554;14.454;2023-09-30T05:34:49;15.98;;;6.85;;
37164;SDS011;23057;48.554;14.454;2023-09-30T05:37:22;22.50;;;8.10;;
37164;SDS011;23057;48.554;14.454;2023-09-30T05:39:56;19.83;;;9.02;;
37164;SDS011;23057;48.554;14.454;2023-09-30T05:42:27;17.38;;;7.30;;
37164;SDS011;23057;48.554;14.454;2023-09-30T05:44:57;19.92;;;7.43;;
37164;SDS011;23057;48.554;14.454;2023-09-30T05:47:28;19.63;;;8.25;;
37164;SDS011;23057;48.554;14.454;2023-09-30T05:49:59;19.35;;;7.97;;
37164;SDS011;23057;48.554;14.454;2023-09-30T05:52:30;20.75;;;7.82;;
37164;SDS011;23057;48.554;14.454;2023-09-30T05:55:02;21.10;;;8.57;;
37164;SDS011;23057;48.554;14.454;2023-09-30T05:57:33;25.30;;;9.50;;
37164;SDS011;23057;48.554;14.454;2023-09-30T06:00:05;21.58;;;8.23;;
37164;SDS011;23057;48.554;14.454;2023-09-30T06:02:59;20.15;;;8.18;;
37164;SDS011;23057;48.554;14.454;2023-09-30T06:05:30;18.98;;;7.40;;
37164;SDS011;23057;48.554;14.454;2023-09-30T06:08:03;19.08;;;7.35;;
37164;SDS011;23057;48.554;14.454;2023-09-30T06:10:34;18.63;;;7.00;;
37164;SDS011;23057;48.554;14.454;2023-09-30T06:13:07;16.90;;;7.05;;
37164;SDS011;23057;48.554;14.454;2023-09-30T06:15:43;17.65;;;6.53;;
37164;SDS011;23057;48.554;14.454;2023-09-30T06:18:13;19.50;;;7.22;;
37164;SDS011;23057;48.554;14.454;2023-09-30T06:20:45;18.52;;;6.70;;
37164;SDS011;23057;48.554;14.454;2023-09-30T06:23:16;17.80;;;6.93;;
37164;SDS011;23057;48.554;14.454;2023-09-30T06:25:47;21.40;;;8.23;;
37164;SDS011;23057;48.554;14.454;2023-09-30T06:28:18;19.45;;;6.82;;
37164;SDS011;23057;48.554;14.454;2023-09-30T06:30:55;20.55;;;7.20;;
37164;SDS011;23057;48.554;14.454;2023-09-30T06:33:26;22.33;;;7.68;;
37164;SDS011;23057;48.554;14.454;2023-09-30T06:35:59;18.92;;;8.38;;
37164;SDS011;23057;48.554;14.454;2023-09-30T06:38:32;20.80;;;6.55;;
37164;SDS011;23057;48.554;14.454;2023-09-30T06:41:03;24.30;;;7.38;;
37164;SDS011;23057;48.554;14.454;2023-09-30T06:43:34;20.20;;;7.93;;
37164;SDS011;23057;48.554;14.454;2023-09-30T06:46:08;22.23;;;7.00;;
37164;SDS011;23057;48.554;14.454;2023-09-30T06:48:40;22.65;;;7.80;;
37164;SDS011;23057;48.554;14.454;2023-09-30T06:51:14;17.08;;;7.18;;
37164;SDS011;23057;48.554;14.454;2023-09-30T06:53:46;16.95;;;6.70;;
37164;SDS011;23057;48.554;14.454;2023-09-30T06:56:16;17.65;;;6.32;;
37164;SDS011;23057;48.554;14.454;2023-09-30T06:58:48;22.48;;;8.02;;
37164;SDS011;23057;48.554;14.454;2023-09-30T07:01:18;18.10;;;6.85;;
37164;SDS011;23057;48.554;14.454;2023-09-30T07:03:49;21.90;;;7.55;;
37164;SDS011;23057;48.554;14.454;2023-09-30T07:06:22;20.48;;;6.88;;
37164;SDS011;23057;48.554;14.454;2023-09-30T07:08:54;20.73;;;7.18;;
37164;SDS011;23057;48.554;14.454;2023-09-30T07:11:28;23.23;;;7.75;;
37164;SDS011;23057;48.554;14.454;2023-09-30T07:14:03;18.20;;;7.30;;
37164;SDS011;23057;48.554;14.454;2023-09-30T07:16:34;21.25;;;7.88;;
37164;SDS011;23057;48.554;14.454;2023-09-30T07:19:04;21.23;;;7.70;;
37164;SDS011;23057;48.554;14.454;2023-09-30T07:21:35;16.77;;;6.63;;
37164;SDS011;23057;48.554;14.454;2023-09-30T07:24:07;16.20;;;6.90;;
37164;SDS011;23057;48.554;14.454;2023-09-30T07:26:39;17.88;;;6.28;;
37164;SDS011;23057;48.554;14.454;2023-09-30T07:29:10;18.13;;;7.03;;
37164;SDS011;23057;48.554;14.454;2023-09-30T07:31:41;17.08;;;7.07;;
37164;SDS011;23057;48.554;14.454;2023-09-30T07:34:11;25.40;;;7.93;;
37164;SDS011;23057;48.554;14.454;2023-09-30T07:36:42;17.15;;;6.63;;
37164;SDS011;23057;48.554;14.454;2023-09-30T07:39:13;17.08;;;7.63;;
37164;SDS011;23057;48.554;14.454;2023-09-30T07:41:44;21.85;;;7.97;;
37164;SDS011;23057;48.554;14.454;2023-09-30T07:44:15;19.38;;;6.90;;
37164;SDS011;23057;48.554;14.454;2023-09-30T07:46:45;19.77;;;7.15;;
37164;SDS011;23057;48.554;14.454;2023-09-30T07:49:17;16.77;;;6.10;;
37164;SDS011;23057;48.554;14.454;2023-09-30T07:51:47;19.25;;;6.25;;
37164;SDS011;23057;48.554;14.454;2023-09-30T07:54:18;18.88;;;7.07;;
37164;SDS011;23057;48.554;14.454;2023-09-30T07:56:49;21.50;;;7.40;;
37164;SDS011;23057;48.554;14.454;2023-09-30T07:59:20;16.50;;;6.63;;
37164;SDS011;23057;48.554;14.454;2023-09-30T08:01:51;22.73;;;7.03;;
37164;SDS011;23057;48.554;14.454;2023-09-30T08:04:22;15.30;;;6.20;;
37164;SDS011;23057;48.554;14.454;2023-09-30T08:06:53;18.35;;;6.65;;
37164;SDS011;23057;48.554;14.454;2023-09-30T08:09:24;16.35;;;5.85;;
37164;SDS011;23057;48.554;14.454;2023-09-30T08:11:55;17.88;;;6.95;;
37164;SDS011;23057;48.554;14.454;2023-09-30T08:14:26;18.48;;;8.02;;
37164;SDS011;23057;48.554;14.454;2023-09-30T08:16:57;17.73;;;6.55;;
37164;SDS011;23057;48.554;14.454;2023-09-30T08:19:28;20.25;;;7.28;;
37164;SDS011;23057;48.554;14.454;2023-09-30T08:21:59;14.77;;;5.88;;
37164;SDS011;23057;48.554;14.454;2023-09-30T08:24:30;15.25;;;6.22;;
37164;SDS011;23057;48.554;14.454;2023-09-30T08:27:01;19.70;;;7.32;;
37164;SDS011;23057;48.554;14.454;2023-09-30T08:29:35;18.70;;;7.78;;
37164;SDS011;23057;48.554;14.454;2023-09-30T08:32:06;18.27;;;7.00;;
37164;SDS011;23057;48.554;14.454;2023-09-30T08:34:37;17.98;;;7.13;;
37164;SDS011;23057;48.554;14.454;2023-09-30T08:37:08;18.33;;;7.53;;
37164;SDS011;23057;48.554;14.454;2023-09-30T08:39:40;19.50;;;7.00;;
37164;SDS011;23057;48.554;14.454;2023-09-30T08:42:11;22.23;;;8.13;;
37164;SDS011;23057;48.554;14.454;2023-09-30T08:44:42;17.55;;;6.95;;
37164;SDS011;23057;48.554;14.454;2023-09-30T08:47:14;22.63;;;8.00;;
37164;SDS011;23057;48.554;14.454;2023-09-30T08:49:45;20.02;;;7.57;;
37164;SDS011;23057;48.554;14.454;2023-09-30T08:52:25;16.25;;;6.65;;
37164;SDS011;23057;48.554;14.454;2023-09-30T08:54:57;18.75;;;7.20;;
37164;SDS011;23057;48.554;14.454;2023-09-30T08:57:28;22.38;;;7.57;;
37164;SDS011;23057;48.554;14.454;2023-09-30T09:00:00;27.90;;;8.88;;
37164;SDS011;23057;48.554;14.454;2023-09-30T09:02:34;20.42;;;7.38;;
37164;SDS011;23057;48.554;14.454;2023-09-30T09:05:05;19.95;;;7.90;;
37164;SDS011;23057;48.554;14.454;2023-09-30T09:07:37;19.00;;;7.25;;
37164;SDS011;23057;48.554;14.454;2023-09-30T09:10:10;16.02;;;8.10;;
37164;SDS011;23057;48.554;14.454;2023-09-30T09:12:45;19.63;;;7.07;;
37164;SDS011;23057;48.554;14.454;2023-09-30T09:15:29;25.73;;;10.10;;
37164;SDS011;23057;48.554;14.454;2023-09-30T09:18:00;22.20;;;8.68;;
37164;SDS011;23057;48.554;14.454;2023-09-30T09:20:31;21.92;;;8.45;;
37164;SDS011;23057;48.554;14.454;2023-09-30T09:23:02;20.55;;;8.07;;
37164;SDS011;23057;48.554;14.454;2023-09-30T09:25:38;23.10;;;7.70;;
37164;SDS011;23057;48.554;14.454;2023-09-30T09:28:09;20.45;;;8.13;;
37164;SDS011;23057;48.554;14.454;2023-09-30T09:30:41;23.13;;;9.43;;
37164;SDS011;23057;48.554;14.454;2023-09-30T09:33:13;23.58;;;8.80;;
37164;SDS011;23057;48.554;14.454;2023-09-30T09:35:46;26.55;;;9.95;;
37164;SDS011;23057;48.554;14.454;2023-09-30T09:38:18;26.25;;;10.38;;
37164;SDS011;23057;48.554;14.454;2023-09-30T09:40:49;21.88;;;8.98;;
37164;SDS011;23057;48.554;14.454;2023-09-30T09:43:20;23.17;;;9.52;;
37164;SDS011;23057;48.554;14.454;2023-09-30T09:45:51;26.17;;;10.40;;
37164;SDS011;23057;48.554;14.454;2023-09-30T09:48:26;31.08;;;10.63;;
37164;SDS011;23057;48.554;14.454;2023-09-30T09:50:57;28.25;;;10.88;;
37164;SDS011;23057;48.554;14.454;2023-09-30T09:53:29;26.75;;;11.38;;
37164;SDS011;23057;48.554;14.454;2023-09-30T09:56:04;28.50;;;10.05;;
37164;SDS011;23057;48.554;14.454;2023-09-30T09:58:40;26.80;;;9.75;;
37164;SDS011;23057;48.554;14.454;2023-09-30T10:01:12;25.25;;;9.68;;
37164;SDS011;23057;48.554;14.454;2023-09-30T10:03:43;25.88;;;8.95;;
37164;SDS011;23057;48.554;14.454;2023-09-30T10:06:14;24.33;;;9.00;;
37164;SDS011;23057;48.554;14.454;2023-09-30T10:08:45;23.30;;;7.95;;
37164;SDS011;23057;48.554;14.454;2023-09-30T10:11:21;23.90;;;8.75;;
37164;SDS011;23057;48.554;14.454;2023-09-30T10:13:53;23.20;;;8.25;;
37164;SDS011;23057;48.554;14.454;2023-09-30T10:19:40;24.02;;;8.70;;
37164;SDS011;23057;48.554;14.454;2023-09-30T10:24:52;22.02;;;8.48;;
37164;SDS011;23057;48.554;14.454;2023-09-30T10:27:30;22.25;;;7.82;;
37164;SDS011;23057;48.554;14.454;2023-09-30T10:40:54;25.92;;;9.90;;
37164;SDS011;23057;48.554;14.454;2023-09-30T10:43:41;24.02;;;9.05;;
37164;SDS011;23057;48.554;14.454;2023-09-30T10:46:29;23.95;;;8.60;;
37164;SDS011;23057;48.554;14.454;2023-09-30T10:49:29;24.48;;;9.68;;
37164;SDS011;23057;48.554;14.454;2023-09-30T10:52:02;26.50;;;9.43;;
37164;SDS011;23057;48.554;14.454;2023-09-30T10:54:34;21.90;;;10.38;;
37164;SDS011;23057;48.554;14.454;2023-09-30T10:57:05;22.65;;;7.97;;
37164;SDS011;23057;48.554;14.454;2023-09-30T10:59:36;23.08;;;8.93;;
37164;SDS011;23057;48.554;14.454;2023-09-30T11:02:28;24.73;;;9.75;;
37164;SDS011;23057;48.554;14.454;2023-09-30T11:05:01;24.95;;;9.38;;
37164;SDS011;23057;48.554;14.454;2023-09-30T11:07:40;23.13;;;8.43;;
37164;SDS011;23057;48.554;14.454;2023-09-30T11:10:17;25.45;;;9.50;;
37164;SDS011;23057;48.554;14.454;2023-09-30T11:12:57;27.30;;;9.80;;
37164;SDS011;23057;48.554;14.454;2023-09-30T11:15:29;25.50;;;9.27;;
37164;SDS011;23057;48.554;14.454;2023-09-30T11:18:12;25.15;;;10.00;;
37164;SDS011;23057;48.554;14.454;2023-09-30T11:20:48;25.85;;;9.95;;
37164;SDS011;23057;48.554;14.454;2023-09-30T11:23:19;26.00;;;8.90;;
37164;SDS011;23057;48.554;14.454;2023-09-30T11:25:50;25.27;;;9.13;;
37164;SDS011;23057;48.554;14.454;2023-09-30T11:28:24;21.40;;;9.77;;
37164;SDS011;23057;48.554;14.454;2023-09-30T11:30:57;21.80;;;9.05;;
37164;SDS011;23057;48.554;14.454;2023-09-30T11:33:52;27.15;;;9.43;;
37164;SDS011;23057;48.554;14.454;2023-09-30T11:36:26;21.83;;;8.52;;
37164;SDS011;23057;48.554;14.454;2023-09-30T11:38:58;20.67;;;7.60;;
37164;SDS011;23057;48.554;14.454;2023-09-30T11:41:32;26.50;;;8.73;;
37164;SDS011;23057;48.554;14.454;2023-09-30T11:44:10;26.15;;;9.73;;
37164;SDS011;23057;48.554;14.454;2023-09-30T11:52:11;25.85;;;10.48;;
37164;SDS011;23057;48.554;14.454;2023-09-30T11:54:57;24.25;;;10.05;;
37164;SDS011;23057;48.554;14.454;2023-09-30T11:57:28;26.25;;;10.32;;
37164;SDS011;23057;48.554;14.454;2023-09-30T11:59:58;26.88;;;10.77;;
37164;SDS011;23057;48.554;14.454;2023-09-30T12:02:29;30.13;;;10.45;;
37164;SDS011;23057;48.554;14.454;2023-09-30T12:05:00;28.83;;;11.30;;
37164;SDS011;23057;48.554;14.454;2023-09-30T12:07:31;23.77;;;9.30;;
37164;SDS011;23057;48.554;14.454;2023-09-30T12:10:03;24.23;;;9.43;;
37164;SDS011;23057;48.554;14.454;2023-09-30T12:12:34;30.17;;;10.40;;
37164;SDS011;23057;48.554;14.454;2023-09-30T12:15:06;27.10;;;9.88;;
37164;SDS011;23057;48.554;14.454;2023-09-30T12:17:39;27.85;;;9.88;;
37164;SDS011;23057;48.554;14.454;2023-09-30T12:20:10;21.27;;;8.23;;
37164;SDS011;23057;48.554;14.454;2023-09-30T12:22:44;23.02;;;8.85;;
37164;SDS011;23057;48.554;14.454;2023-09-30T12:25:15;27.75;;;9.10;;
37164;SDS011;23057;48.554;14.454;2023-09-30T12:27:49;22.30;;;8.85;;
37164;SDS011;23057;48.554;14.454;2023-09-30T12:30:20;22.83;;;7.85;;
37164;SDS011;23057;48.554;14.454;2023-09-30T12:32:51;20.27;;;8.73;;
37164;SDS011;23057;48.554;14.454;2023-09-30T12:35:24;22.70;;;8.27;;
37164;SDS011;23057;48.554;14.454;2023-09-30T12:37:55;26.23;;;8.68;;
37164;SDS011;23057;48.554;14.454;2023-09-30T12:40:26;24.42;;;8.55;;
37164;SDS011;23057;48.554;14.454;2023-09-30T12:42:58;22.85;;;8.25;;
37164;SDS011;23057;48.554;14.454;2023-09-30T12:45:29;23.02;;;8.70;;
37164;SDS011;23057;48.554;14.454;2023-09-30T12:48:00;21.25;;;8.02;;
37164;SDS011;23057;48.554;14.454;2023-09-30T12:50:30;24.00;;;8.68;;
37164;SDS011;23057;48.554;14.454;2023-09-30T12:53:01;22.13;;;8.30;;
37164;SDS011;23057;48.554;14.454;2023-09-30T12:55:32;19.98;;;8.07;;
37164;SDS011;23057;48.554;14.454;2023-09-30T12:58:03;23.35;;;8.00;;
37164;SDS011;23057;48.554;14.454;2023-09-30T13:00:34;23.85;;;8.50;;
37164;SDS011;23057;48.554;14.454;2023-09-30T13:03:06;17.15;;;6.47;;
37164;SDS011;23057;48.554;14.454;2023-09-30T13:05:37;12.90;;;5.72;;
37164;SDS011;23057;48.554;14.454;2023-09-30T13:08:08;16.30;;;5.97;;
37164;SDS011;23057;48.554;14.454;2023-09-30T13:10:39;21.38;;;6.28;;
37164;SDS011;23057;48.554;14.454;2023-09-30T13:13:10;14.32;;;5.25;;
37164;SDS011;23057;48.554;14.454;2023-09-30T13:15:41;13.38;;;5.50;;
37164;SDS011;23057;48.554;14.454;2023-09-30T13:18:11;14.98;;;5.65;;
37164;SDS011;23057;48.554;14.454;2023-09-30T13:20:43;13.65;;;5.05;;
37164;SDS011;23057;48.554;14.454;2023-09-30T13:23:13;17.20;;;5.30;;
37164;SDS011;23057;48.554;14.454;2023-09-30T13:25:44;16.00;;;5.82;;
37164;SDS011;23057;48.554;14.454;2023-09-30T13:28:15;13.68;;;5.53;;
37164;SDS011;23057;48.554;14.454;2023-09-30T13:30:46;16.95;;;5.22;;
37164;SDS011;23057;48.554;14.454;2023-09-30T13:33:18;16.40;;;5.30;;
37164;SDS011;23057;48.554;14.454;2023-09-30T13:35:50;11.45;;;5.05;;
37164;SDS011;23057;48.554;14.454;2023-09-30T13:38:21;11.80;;;5.55;;
37164;SDS011;23057;48.554;14.454;2023-09-30T13:40:52;14.68;;;5.63;;
37164;SDS011;23057;48.554;14.454;2023-09-30T13:43:23;10.80;;;4.50;;
37164;SDS011;23057;48.554;14.454;2023-09-30T13:45:54;12.00;;;5.20;;
37164;SDS011;23057;48.554;14.454;2023-09-30T13:48:26;16.63;;;5.68;;
37164;SDS011;23057;48.554;14.454;2023-09-30T13:51:03;13.80;;;5.15;;
37164;SDS011;23057;48.554;14.454;2023-09-30T13:53:43;14.88;;;5.72;;
37164;SDS011;23057;48.554;14.454;2023-09-30T13:56:14;16.60;;;5.63;;
37164;SDS011;23057;48.554;14.454;2023-09-30T13:58:44;12.65;;;5.32;;
37164;SDS011;23057;48.554;14.454;2023-09-30T14:01:15;14.70;;;5.38;;
37164;SDS011;23057;48.554;14.454;2023-09-30T14:03:47;14.38;;;5.43;;
37164;SDS011;23057;48.554;14.454;2023-09-30T14:06:18;15.00;;;4.80;;
37164;SDS011;23057;48.554;14.454;2023-09-30T14:08:49;13.18;;;5.85;;
37164;SDS011;23057;48.554;14.454;2023-09-30T14:11:20;14.25;;;5.75;;
37164;SDS011;23057;48.554;14.454;2023-09-30T14:13:51;14.15;;;5.85;;
37164;SDS011;23057;48.554;14.454;2023-09-30T14:16:21;13.77;;;5.05;;
37164;SDS011;23057;48.554;14.454;2023-09-30T14:18:52;13.35;;;5.60;;
37164;SDS011;23057;48.554;14.454;2023-09-30T14:21:23;11.55;;;5.68;;
37164;SDS011;23057;48.554;14.454;2023-09-30T14:23:54;12.13;;;4.90;;
37164;SDS011;23057;48.554;14.454;2023-09-30T14:26:24;13.40;;;5.25;;
37164;SDS011;23057;48.554;14.454;2023-09-30T14:28:55;10.20;;;4.43;;
37164;SDS011;23057;48.554;14.454;2023-09-30T14:31:26;16.95;;;5.75;;
37164;SDS011;23057;48.554;14.454;2023-09-30T14:33:57;14.02;;;4.82;;
37164;SDS011;23057;48.554;14.454;2023-09-30T14:36:28;10.10;;;4.80;;
37164;SDS011;23057;48.554;14.454;2023-09-30T14:38:59;13.75;;;5.47;;
37164;SDS011;23057;48.554;14.454;2023-09-30T14:41:30;12.85;;;5.57;;
37164;SDS011;23057;48.554;14.454;2023-09-30T14:44:02;12.88;;;5.57;;
37164;SDS011;23057;48.554;14.454;2023-09-30T14:46:37;13.43;;;4.82;;
37164;SDS011;23057;48.554;14.454;2023-09-30T14:49:09;14.82;;;6.80;;
37164;SDS011;23057;48.554;14.454;2023-09-30T14:51:40;25.75;;;12.65;;
37164;SDS011;23057;48.554;14.454;2023-09-30T14:54:11;13.00;;;7.50;;
37164;SDS011;23057;48.554;14.454;2023-09-30T14:56:42;18.67;;;10.75;;
37164;SDS011;23057;48.554;14.454;2023-09-30T14:59:13;16.90;;;9.27;;
37164;SDS011;23057;48.554;14.454;2023-09-30T15:01:44;21.48;;;10.85;;
37164;SDS011;23057;48.554;14.454;2023-09-30T15:04:15;11.88;;;5.90;;
37164;SDS011;23057;48.554;14.454;2023-09-30T15:06:46;14.35;;;5.75;;
37164;SDS011;23057;48.554;14.454;2023-09-30T15:09:17;15.30;;;7.13;;
37164;SDS011;23057;48.554;14.454;2023-09-30T15:11:48;13.40;;;5.75;;
37164;SDS011;23057;48.554;14.454;2023-09-30T15:14:19;13.48;;;6.53;;
37164;SDS011;23057;48.554;14.454;2023-09-30T15:16:50;9.77;;;4.90;;